Time;durP1;ratioP1;P1;durP2;ratioP2;P2;SDS_P1;SDS_P2;PMS_P1;PMS_P2;Temp;Humidity;BMP_temperature;BMP_pressure;BME280_temperature;BME280_humidity;BME280_pressure;Samples;Min_cycle;Max_cycle;Signal;HPM_P1;HPM_P2
2022/08/10 00:01:29;;;;;;;1.27;0.50;;;;;;;23.58;29.45;101681.25;5055451;28;20090;-66
2022/08/10 00:03:55;;;;;;;0.82;0.40;;;;;;;23.56;29.35;101675.16;5055960;28;20025;-66
2022/08/10 00:06:20;;;;;;;0.38;0.30;;;;;;;23.55;29.69;101668.06;5068799;28;20021;-66
2022/08/10 00:08:45;;;;;;;0.40;0.38;;;;;;;23.54;29.46;101669.13;5075736;28;20493;-66
2022/08/10 00:11:11;;;;;;;1.05;0.50;;;;;;;23.53;29.33;101664.75;5075632;28;20367;-66
2022/08/10 00:13:36;;;;;;;0.55;0.50;;;;;;;23.54;29.53;101669.13;5075185;28;20024;-66
2022/08/10 00:16:03;;;;;;;0.32;0.30;;;;;;;23.53;29.61;101671.03;5075276;28;20028;-66
2022/08/10 00:18:28;;;;;;;0.40;0.40;;;;;;;23.55;29.59;101659.88;5075054;28;20025;-66
2022/08/10 00:20:54;;;;;;;1.00;0.40;;;;;;;23.53;29.37;101670.22;5075023;28;20020;-66
2022/08/10 00:23:19;;;;;;;0.40;0.40;;;;;;;23.53;29.41;101668.31;5075047;28;20016;-66
2022/08/10 00:25:44;;;;;;;0.43;0.38;;;;;;;23.53;29.31;101662.03;5075335;28;20028;-66
2022/08/10 00:28:10;;;;;;;0.30;0.30;;;;;;;23.52;29.48;101671.28;5074974;28;20036;-66
2022/08/10 00:30:36;;;;;;;0.77;0.47;;;;;;;23.53;29.35;101670.22;5075280;28;20116;-66
2022/08/10 00:33:01;;;;;;;0.63;0.50;;;;;;;23.52;29.37;101665.81;5074898;28;20051;-66
2022/08/10 00:35:27;;;;;;;0.47;0.45;;;;;;;23.49;28.80;101671.75;5074846;28;20016;-66
2022/08/10 00:37:52;;;;;;;0.40;0.40;;;;;;;23.51;29.15;101666.88;5074661;28;20028;-66
2022/08/10 00:40:17;;;;;;;0.50;0.50;;;;;;;23.50;29.16;101663.34;5075031;28;20017;-66
2022/08/10 00:42:43;;;;;;;0.55;0.52;;;;;;;23.52;29.03;101660.38;5074952;28;20082;-66
2022/08/10 00:45:09;;;;;;;0.35;0.35;;;;;;;23.49;29.31;101667.16;5075144;28;20490;-66
2022/08/10 00:47:34;;;;;;;0.40;0.40;;;;;;;23.49;29.02;101666.31;5074607;28;20032;-66
2022/08/10 00:50:00;;;;;;;0.30;0.30;;;;;;;23.50;29.32;101666.06;5074447;28;20024;-66
2022/08/10 00:52:25;;;;;;;0.40;0.40;;;;;;;23.48;28.75;101661.94;5074722;28;20509;-66
2022/08/10 00:54:51;;;;;;;0.63;0.30;;;;;;;23.49;29.02;101660.84;5074744;28;20427;-66
2022/08/10 00:57:17;;;;;;;0.40;0.30;;;;;;;23.49;28.71;101663.56;5056920;28;20530;-68
2022/08/10 00:59:42;;;;;;;0.30;0.30;;;;;;;23.47;29.03;101669.28;5074610;28;20095;-67
2022/08/10 01:02:08;;;;;;;0.40;0.40;;;;;;;23.47;28.99;101652.09;5074270;28;20031;-67
2022/08/10 01:04:33;;;;;;;0.30;0.30;;;;;;;23.48;29.08;101656.47;5074688;28;20032;-67
2022/08/10 01:07:11;;;;;;;0.30;0.30;;;;;;;23.48;28.91;101660.03;5055293;28;20029;-67
2022/08/10 01:09:43;;;;;;;0.55;0.40;;;;;;;23.48;28.84;101654.56;5052968;28;20070;-67
2022/08/10 01:12:13;;;;;;;0.30;0.30;;;;;;;23.44;28.59;101659.69;5053191;28;20064;-67
2022/08/10 01:15:00;;;;;;;0.40;0.40;;;;;;;23.46;28.64;101656.72;5036859;28;20052;-67
2022/08/10 01:18:00;;;;;;;0.30;0.30;;;;;;;23.47;28.56;101660.28;5054246;28;20044;-67
2022/08/10 01:20:28;;;;;;;0.40;0.40;;;;;;;23.44;28.69;101664.31;5053211;28;20025;-67
2022/08/10 01:23:25;;;;;;;0.30;0.30;;;;;;;23.45;28.65;101660.50;5054325;28;20070;-67
2022/08/10 01:26:18;;;;;;;0.35;0.32;;;;;;;23.43;28.44;101662.66;5054133;28;20132;-67
2022/08/10 01:29:00;;;;;;;0.60;0.40;;;;;;;23.43;28.48;101652.56;5053046;28;20036;-67
2022/08/10 01:31:29;;;;;;;0.30;0.30;;;;;;;23.39;28.59;101662.31;5036841;28;20059;-67
2022/08/10 01:33:57;;;;;;;0.32;0.32;;;;;;;23.40;28.39;101661.25;5052514;28;20037;-67
2022/08/10 01:36:28;;;;;;;0.30;0.30;;;;;;;23.41;28.39;101660.16;5052608;28;20526;-67
2022/08/10 01:38:53;;;;;;;0.30;0.30;;;;;;;23.40;28.33;101655.81;5052350;28;20029;-67
2022/08/10 01:41:44;;;;;;;0.30;0.30;;;;;;;23.40;28.38;101657.69;5052666;28;20526;-67
2022/08/10 01:44:12;;;;;;;0.30;0.30;;;;;;;23.40;28.30;101664.00;5038312;28;20071;-67
2022/08/10 01:46:39;;;;;;;0.50;0.50;;;;;;;23.40;28.64;101665.88;5052718;28;20025;-67
2022/08/10 01:49:07;;;;;;;0.30;0.30;;;;;;;23.39;28.25;101662.31;5055032;28;20032;-67
2022/08/10 01:51:35;;;;;;;0.30;0.30;;;;;;;23.39;28.39;101661.50;5054021;28;20017;-67
2022/08/10 01:54:08;;;;;;;0.20;0.20;;;;;;;23.41;28.11;101659.34;5038339;28;20374;-67
2022/08/10 01:56:45;;;;;;;0.20;0.20;;;;;;;23.42;28.33;101655.53;5054907;28;20078;-66
2022/08/10 01:59:31;;;;;;;0.45;0.43;;;;;;;23.43;28.19;101657.19;5054319;28;20036;-67
2022/08/10 02:02:17;;;;;;;0.32;0.32;;;;;;;23.40;28.10;101649.50;5054869;28;20029;-67
2022/08/10 02:04:47;;;;;;;0.30;0.30;;;;;;;23.38;28.39;101657.91;5053117;28;20043;-67
2022/08/10 02:07:15;;;;;;;0.30;0.30;;;;;;;23.37;28.30;101655.44;5072754;28;20031;-67
2022/08/10 02:09:42;;;;;;;0.28;0.28;;;;;;;23.37;28.32;101656.28;5072082;28;20470;-67
2022/08/10 02:12:13;;;;;;;0.47;0.35;;;;;;;23.37;28.41;101653.56;5072044;28;20085;-67
2022/08/10 02:14:49;;;;;;;0.40;0.40;;;;;;;23.34;28.26;101648.56;5072081;28;20111;-67
2022/08/10 02:17:24;;;;;;;0.52;0.50;;;;;;;23.37;28.40;101656.28;5072060;28;20337;-67
2022/08/10 02:19:49;;;;;;;0.30;0.30;;;;;;;23.37;27.96;101648.09;5056006;28;20107;-67
2022/08/10 02:22:15;;;;;;;0.40;0.40;;;;;;;23.35;28.37;101655.69;5055346;28;20028;-67
2022/08/10 02:24:40;;;;;;;0.30;0.30;;;;;;;23.38;28.24;101654.38;5071945;28;20024;-66
2022/08/10 02:27:06;;;;;;;0.30;0.30;;;;;;;23.37;27.92;101656.28;5073388;28;20032;-67
2022/08/10 02:29:31;;;;;;;0.30;0.30;;;;;;;23.36;28.25;101656.53;5073330;28;20043;-67
2022/08/10 02:31:58;;;;;;;0.30;0.30;;;;;;;23.36;28.03;101649.16;5071817;28;20048;-67
2022/08/10 02:34:23;;;;;;;0.30;0.30;;;;;;;23.35;28.04;101650.25;5072086;28;20028;-67
2022/08/10 02:36:49;;;;;;;0.30;0.30;;;;;;;23.35;27.86;101658.44;5071828;28;20023;-67
2022/08/10 02:39:15;;;;;;;0.30;0.30;;;;;;;23.33;28.04;101657.00;5072071;28;20025;-66
2022/08/10 02:41:41;;;;;;;0.38;0.38;;;;;;;23.32;27.96;101655.31;5055177;28;20479;-67
2022/08/10 02:44:20;;;;;;;0.20;0.20;;;;;;;23.32;27.89;101652.59;5072198;28;20132;-66
2022/08/10 02:46:46;;;;;;;0.40;0.40;;;;;;;23.33;27.97;101646.91;5056516;28;20025;-66
2022/08/10 02:49:15;;;;;;;0.30;0.30;;;;;;;23.33;28.01;101646.91;5055352;28;20025;-66
2022/08/10 02:51:46;;;;;;;0.30;0.30;;;;;;;23.29;27.93;101640.28;5073360;28;20078;-68
2022/08/10 02:54:20;;;;;;;0.20;0.20;;;;;;;23.31;27.95;101649.06;5055381;28;20024;-66
2022/08/10 02:56:53;;;;;;;0.30;0.30;;;;;;;23.31;27.74;101648.25;5071844;28;20150;-65
2022/08/10 02:59:23;;;;;;;0.30;0.30;;;;;;;23.32;28.04;101656.19;5072113;28;20036;-66
2022/08/10 03:01:49;;;;;;;0.30;0.30;;;;;;;23.34;27.77;101645.03;5072021;28;20024;-66
2022/08/10 03:04:32;;;;;;;0.30;0.30;;;;;;;23.39;27.69;101645.94;5071925;28;20490;-66
2022/08/10 03:07:00;;;;;;;0.22;0.22;;;;;;;23.39;28.04;101656.03;5055506;28;20017;-68
2022/08/10 03:09:26;;;;;;;0.50;0.40;;;;;;;23.41;28.11;101660.16;5051721;28;20502;-65
2022/08/10 03:11:51;;;;;;;0.30;0.30;;;;;;;23.43;27.92;101662.66;5052706;28;20065;-65
2022/08/10 03:14:17;;;;;;;0.30;0.30;;;;;;;23.46;27.79;101655.88;5034988;28;20377;-65
2022/08/10 03:16:43;;;;;;;0.20;0.20;;;;;;;23.47;27.95;101663.81;5052493;28;20029;-65
2022/08/10 03:19:08;;;;;;;0.40;0.40;;;;;;;23.49;27.88;101669.03;5034751;28;20021;-67
2022/08/10 03:21:34;;;;;;;0.30;0.30;;;;;;;23.49;27.95;101663.56;5051658;28;20021;-68
2022/08/10 03:24:01;;;;;;;0.30;0.30;;;;;;;23.49;27.82;101660.84;5051646;28;20387;-67
2022/08/10 03:26:30;;;;;;;0.30;0.28;;;;;;;23.50;27.82;101663.34;5051563;28;20029;-66
2022/08/10 03:28:56;;;;;;;0.30;0.30;;;;;;;23.52;27.51;101665.81;5051262;28;20035;-66
2022/08/10 03:31:21;;;;;;;0.30;0.30;;;;;;;23.53;27.53;101672.94;5053760;28;20090;-67
2022/08/10 03:33:47;;;;;;;0.30;0.30;;;;;;;23.55;27.81;101668.06;5055977;28;20120;-67
2022/08/10 03:36:12;;;;;;;0.20;0.20;;;;;;;23.57;27.83;101674.09;5038587;28;20024;-67
2022/08/10 03:38:39;;;;;;;0.30;0.30;;;;;;;23.58;27.69;101665.69;5056240;28;20029;-67
2022/08/10 03:41:05;;;;;;;0.30;0.30;;;;;;;23.60;27.90;101668.16;5054580;28;20060;-67
2022/08/10 03:43:31;;;;;;;0.50;0.50;;;;;;;23.61;27.77;101669.81;5038478;28;20056;-67
2022/08/10 03:45:58;;;;;;;0.40;0.30;;;;;;;23.62;27.88;101655.09;5038060;28;20021;-67
2022/08/10 03:48:25;;;;;;;0.38;0.30;;;;;;;23.62;27.68;101655.94;5056282;28;20021;-67
2022/08/10 03:50:50;;;;;;;0.32;0.32;;;;;;;23.66;27.89;101661.72;5055854;28;20035;-67
2022/08/10 03:53:16;;;;;;;0.40;0.40;;;;;;;23.67;28.05;101660.66;5054570;28;20025;-66
2022/08/10 03:55:42;;;;;;;0.35;0.35;;;;;;;23.67;28.06;101663.38;5054778;28;20032;-67
2022/08/10 03:58:07;;;;;;;0.43;0.43;;;;;;;23.69;27.94;101654.97;5038052;28;20032;-67
2022/08/10 04:00:35;;;;;;;0.30;0.30;;;;;;;23.70;27.99;101668.38;5055867;28;20026;-66
2022/08/10 04:03:04;;;;;;;0.40;0.32;;;;;;;23.70;28.09;101664.78;5054382;28;20056;-67
2022/08/10 04:05:30;;;;;;;0.30;0.30;;;;;;;23.69;28.39;101663.97;5059320;28;20020;-67
2022/08/10 04:07:56;;;;;;;0.30;0.30;;;;;;;23.72;28.40;101666.22;5074748;28;20044;-67
2022/08/10 04:10:22;;;;;;;0.35;0.30;;;;;;;23.75;28.20;101660.28;5074671;28;20450;-67
2022/08/10 04:12:47;;;;;;;0.38;0.38;;;;;;;23.75;28.32;101660.28;5075441;28;20027;-67
2022/08/10 04:15:13;;;;;;;0.40;0.40;;;;;;;23.76;28.34;101655.63;5075732;28;20033;-67
2022/08/10 04:17:38;;;;;;;0.35;0.35;;;;;;;23.77;28.39;101657.31;5075210;28;20028;-67
2022/08/10 04:20:05;;;;;;;0.30;0.30;;;;;;;23.76;28.65;101661.91;5075236;28;20032;-67
2022/08/10 04:22:30;;;;;;;0.35;0.32;;;;;;;23.76;28.88;101661.09;5074532;28;20031;-67
2022/08/10 04:25:01;;;;;;;0.30;0.30;;;;;;;23.78;28.96;101658.94;5074057;28;20463;-67
2022/08/10 04:27:26;;;;;;;0.30;0.30;;;;;;;23.80;28.91;101652.19;5073904;28;20051;-67
2022/08/10 04:29:54;;;;;;;0.30;0.30;;;;;;;23.84;28.91;101646.25;5073837;28;20032;-67
2022/08/10 04:32:19;;;;;;;0.30;0.30;;;;;;;23.84;28.84;101647.09;5057561;28;20055;-67
2022/08/10 04:34:45;;;;;;;0.40;0.40;;;;;;;23.83;29.12;101650.88;5074559;28;20029;-67
2022/08/10 04:37:11;;;;;;;0.40;0.40;;;;;;;23.85;29.17;101648.72;5056986;28;20111;-67
2022/08/10 04:39:37;;;;;;;0.30;0.30;;;;;;;23.88;29.34;101648.22;5073499;28;20463;-67
2022/08/10 04:42:03;;;;;;;0.40;0.40;;;;;;;23.87;29.21;101641.13;5073528;28;20021;-66
2022/08/10 04:44:28;;;;;;;0.32;0.32;;;;;;;23.88;29.42;101645.50;5057600;28;20048;-67
2022/08/10 04:46:54;;;;;;;0.40;0.40;;;;;;;23.89;29.51;101644.44;5073869;28;20371;-67
2022/08/10 04:49:19;;;;;;;0.25;0.25;;;;;;;23.92;29.60;101643.97;5074948;28;20398;-67
2022/08/10 04:51:44;;;;;;;0.30;0.30;;;;;;;23.93;29.28;101644.78;5074844;28;20375;-67
2022/08/10 04:54:10;;;;;;;0.40;0.30;;;;;;;23.94;29.25;101644.53;5074775;28;20025;-67
2022/08/10 04:56:36;;;;;;;0.30;0.30;;;;;;;23.92;29.65;101643.97;5074607;28;20020;-67
2022/08/10 04:59:03;;;;;;;0.40;0.35;;;;;;;23.95;29.42;101637.97;5074629;28;20017;-67
2022/08/10 05:01:31;;;;;;;0.90;0.38;;;;;;;23.96;29.54;101638.81;5074283;28;20100;-68
2022/08/10 05:03:56;;;;;;;0.50;0.50;;;;;;;23.98;29.64;101647.59;5073104;28;20031;-68
2022/08/10 05:06:22;;;;;;;0.30;0.30;;;;;;;23.99;29.52;101649.22;5064589;28;20021;-66
2022/08/10 05:08:47;;;;;;;0.30;0.30;;;;;;;23.95;30.02;101643.44;5054478;28;20471;-67
2022/08/10 05:11:13;;;;;;;0.40;0.40;;;;;;;24.00;29.80;101648.16;5054205;28;20028;-67
2022/08/10 05:13:38;;;;;;;0.30;0.30;;;;;;;23.94;30.12;101647.25;5053992;28;20071;-67
2022/08/10 05:16:04;;;;;;;1.38;0.50;;;;;;;23.99;30.24;101649.22;5054022;28;20071;-67
2022/08/10 05:18:29;;;;;;;10.95;4.20;;;;;;;23.97;30.46;101641.31;5054295;28;20025;-67
2022/08/10 05:20:54;;;;;;;7.20;2.72;;;;;;;23.97;30.40;101645.94;5054097;28;20456;-67
2022/08/10 05:23:20;;;;;;;4.82;1.90;;;;;;;23.93;30.92;101639.31;5054165;28;20384;-68
2022/08/10 05:25:45;;;;;;;3.30;1.70;;;;;;;23.95;31.17;101642.63;5054190;28;20465;-68
2022/08/10 05:28:11;;;;;;;4.07;1.45;;;;;;;24.00;30.86;101639.97;5054353;28;20483;-67
2022/08/10 05:30:36;;;;;;;3.65;1.40;;;;;;;24.00;31.35;101640.78;5054191;28;20082;-67
2022/08/10 05:33:02;;;;;;;1.80;1.00;;;;;;;23.99;31.29;101635.56;5053911;28;20098;-68
2022/08/10 05:35:28;;;;;;;1.50;0.80;;;;;;;24.05;31.92;101642.78;5052628;28;20383;-67
2022/08/10 05:37:55;;;;;;;1.95;0.80;;;;;;;24.04;31.66;101641.13;5053608;28;20104;-67
2022/08/10 05:40:22;;;;;;;1.25;0.65;;;;;;;24.06;31.65;101641.72;5053520;28;20085;-67
2022/08/10 05:42:49;;;;;;;0.80;0.60;;;;;;;24.04;32.26;101637.56;5036265;28;20053;-67
2022/08/10 05:45:40;;;;;;;1.27;0.70;;;;;;;24.14;31.97;101635.00;5053558;28;20364;-69
2022/08/10 05:48:05;;;;;;;2.53;0.50;;;;;;;24.14;31.85;101635.00;5053805;28;20509;-67
2022/08/10 05:50:31;;;;;;;1.27;0.63;;;;;;;24.09;32.00;101643.94;5054272;28;20025;-67
2022/08/10 05:52:57;;;;;;;2.88;0.60;;;;;;;24.06;32.34;101632.69;5052082;28;20371;-66
2022/08/10 05:55:24;;;;;;;1.45;0.50;;;;;;;24.08;32.17;101631.38;5052684;28;20029;-66
2022/08/10 05:57:50;;;;;;;0.43;0.40;;;;;;;24.06;32.34;101635.41;5052254;28;20029;-67
2022/08/10 06:00:18;;;;;;;0.80;0.50;;;;;;;24.12;32.30;101642.63;5053767;28;20028;-67
2022/08/10 06:02:48;;;;;;;1.35;0.52;;;;;;;24.11;32.46;101639.09;5052062;28;20036;-66
2022/08/10 06:05:29;;;;;;;1.65;0.57;;;;;;;24.08;32.42;101636.84;5052191;28;20036;-67
2022/08/10 06:08:05;;;;;;;1.15;0.50;;;;;;;24.10;32.72;101637.41;5033955;28;20037;-67
2022/08/10 06:10:30;;;;;;;1.20;0.50;;;;;;;24.09;32.60;101643.13;5033779;28;20067;-68
2022/08/10 06:15:40;;;;;;;1.15;0.47;;;;;;;24.10;32.56;101637.41;5033466;28;20032;-66
2022/08/10 06:18:05;;;;;;;0.50;0.30;;;;;;;24.22;32.36;101620.13;5032030;28;20041;-66
2022/08/10 06:20:31;;;;;;;0.43;0.40;;;;;;;24.22;32.21;101625.59;5033371;28;20030;-66
2022/08/10 06:23:01;;;;;;;0.50;0.50;;;;;;;24.18;32.44;101630.69;5032145;28;20460;-66
2022/08/10 06:25:29;;;;;;;0.50;0.47;;;;;;;24.19;32.42;101619.53;5032933;28;20471;-66
2022/08/10 06:27:55;;;;;;;1.67;0.63;;;;;;;24.21;32.30;101618.47;5031715;28;20030;-66
2022/08/10 06:30:21;;;;;;;0.32;0.32;;;;;;;24.18;32.39;101631.56;5032031;28;20033;-67
2022/08/10 06:32:51;;;;;;;0.40;0.40;;;;;;;24.22;32.34;101631.88;5015187;28;20083;-67
2022/08/10 06:35:17;;;;;;;0.50;0.47;;;;;;;24.25;32.48;101627.81;5033473;28;20128;-67
2022/08/10 06:37:42;;;;;;;1.33;0.50;;;;;;;24.28;32.02;101621.84;5032358;28;20113;-66
2022/08/10 06:40:08;;;;;;;1.02;0.30;;;;;;;24.26;32.06;101613.91;5031699;28;20022;-67
2022/08/10 06:42:42;;;;;;;0.90;0.60;;;;;;;24.23;32.26;101616.31;5033746;28;20025;-67
2022/08/10 06:45:13;;;;;;;2.28;0.40;;;;;;;24.23;32.22;101619.03;5032527;28;20021;-66
2022/08/10 06:48:06;;;;;;;0.50;0.50;;;;;;;24.18;32.23;101620.63;5016058;28;20033;-66
2022/08/10 06:50:46;;;;;;;0.50;0.50;;;;;;;24.25;32.14;101614.16;5011006;28;20045;-66
2022/08/10 06:53:18;;;;;;;1.95;0.60;;;;;;;24.28;32.37;101625.41;4994784;28;20520;-67
2022/08/10 06:55:47;;;;;;;1.63;0.98;;;;;;;24.24;32.04;101607.03;5011290;28;20084;-66
2022/08/10 06:58:13;;;;;;;1.50;0.60;;;;;;;24.33;31.99;101616.47;5010965;28;20416;-66
2022/08/10 07:00:39;;;;;;;1.67;0.80;;;;;;;24.36;31.80;101603.13;5010737;28;20026;-66
2022/08/10 07:03:08;;;;;;;2.92;0.85;;;;;;;24.30;31.79;101606.03;5011194;28;20034;-65
2022/08/10 07:05:34;;;;;;;1.00;0.90;;;;;;;24.34;31.59;101612.66;5012503;28;20037;-66
2022/08/10 07:07:59;;;;;;;2.97;1.10;;;;;;;24.34;31.34;101613.47;4999066;28;20034;-66
2022/08/10 07:10:25;;;;;;;1.25;1.00;;;;;;;24.33;31.35;101611.00;5014643;28;20034;-65
2022/08/10 07:12:54;;;;;;;1.90;1.13;;;;;;;24.44;31.10;101614.69;4998194;28;20079;-65
2022/08/10 07:15:20;;;;;;;3.15;1.20;;;;;;;24.35;31.08;101614.31;4998486;28;20041;-67
2022/08/10 07:17:45;;;;;;;3.97;1.20;;;;;;;24.30;31.26;101617.81;5014508;28;20045;-66
2022/08/10 07:20:15;;;;;;;2.58;1.23;;;;;;;24.40;30.70;101617.13;4998244;28;20067;-65
2022/08/10 07:22:41;;;;;;;1.38;0.93;;;;;;;24.34;30.93;101609.94;5014803;28;20029;-67
2022/08/10 07:25:06;;;;;;;2.95;1.08;;;;;;;24.35;30.87;101609.69;4998436;28;20436;-67
2022/08/10 07:27:32;;;;;;;1.55;0.80;;;;;;;24.39;30.75;101604.53;5034432;28;20060;-66
2022/08/10 07:29:57;;;;;;;1.30;0.70;;;;;;;24.44;30.74;101607.34;5056092;28;20029;-66
2022/08/10 07:32:23;;;;;;;2.17;0.98;;;;;;;24.38;31.03;101608.34;5054804;28;20041;-66
2022/08/10 07:34:50;;;;;;;1.63;1.02;;;;;;;24.41;30.82;101612.50;5038971;28;20463;-66
2022/08/10 07:37:16;;;;;;;4.80;1.00;;;;;;;24.37;31.03;101612.19;5054666;28;20035;-65
2022/08/10 07:39:43;;;;;;;2.20;1.00;;;;;;;24.43;30.98;101610.34;5055745;28;20025;-66
2022/08/10 07:42:09;;;;;;;2.50;0.90;;;;;;;24.39;30.72;101599.09;5055803;28;20102;-66
2022/08/10 07:44:34;;;;;;;0.82;0.80;;;;;;;24.43;30.58;101600.22;5037994;28;20017;-66
2022/08/10 07:47:01;;;;;;;0.77;0.77;;;;;;;24.46;30.68;101601.66;5056288;28;20087;-66
2022/08/10 07:49:27;;;;;;;1.30;0.70;;;;;;;24.59;30.24;101595.00;5054759;28;20052;-65
2022/08/10 07:51:55;;;;;;;1.35;0.80;;;;;;;24.43;30.90;101593.94;5054801;28;20432;-68
2022/08/10 07:54:21;;;;;;;0.95;0.88;;;;;;;24.47;30.61;101598.63;5054699;28;20032;-66
2022/08/10 07:56:48;;;;;;;3.17;1.10;;;;;;;24.55;30.31;101597.41;5054477;28;20502;-66
2022/08/10 07:59:16;;;;;;;2.83;1.17;;;;;;;24.50;30.32;101595.41;5041692;28;20025;-67
2022/08/10 08:01:46;;;;;;;3.78;2.15;;;;;;;24.51;30.47;101596.25;5057162;28;20079;-67
2022/08/10 08:04:12;;;;;;;3.95;1.80;;;;;;;24.53;30.18;101592.16;5056989;28;20037;-66
2022/08/10 08:06:39;;;;;;;4.75;2.38;;;;;;;24.53;30.19;101589.44;5066743;28;20448;-67
2022/08/10 08:09:04;;;;;;;3.88;1.80;;;;;;;24.52;30.13;101593.25;5074864;28;20067;-66
2022/08/10 08:11:30;;;;;;;3.92;1.60;;;;;;;24.52;29.92;101595.97;5076038;28;20029;-66
2022/08/10 08:13:56;;;;;;;4.20;1.85;;;;;;;24.54;30.10;101607.53;5075192;28;20484;-67
2022/08/10 08:16:24;;;;;;;2.60;1.73;;;;;;;24.53;29.73;101594.91;5077227;28;20024;-66
2022/08/10 08:18:51;;;;;;;3.72;2.17;;;;;;;24.47;29.95;101590.44;5075065;28;20086;-67
2022/08/10 08:21:17;;;;;;;5.75;2.25;;;;;;;24.54;30.00;101595.75;5074277;28;20044;-67
2022/08/10 08:23:43;;;;;;;4.45;2.30;;;;;;;24.51;29.75;101591.59;5076086;28;20017;-67
2022/08/10 08:26:09;;;;;;;3.60;1.88;;;;;;;24.57;29.97;101594.44;5057284;28;20490;-67
2022/08/10 08:28:34;;;;;;;2.97;1.92;;;;;;;24.54;29.85;101584.81;5074365;28;20032;-66
2022/08/10 08:31:00;;;;;;;2.72;1.70;;;;;;;24.53;29.59;101583.97;5057534;28;20463;-67
2022/08/10 08:33:25;;;;;;;2.63;1.40;;;;;;;24.57;29.69;101583.50;5073785;28;20549;-67
2022/08/10 08:35:51;;;;;;;2.40;1.52;;;;;;;24.57;29.82;101588.97;5074938;28;20032;-67
2022/08/10 08:38:16;;;;;;;2.40;1.40;;;;;;;24.60;29.48;101583.81;5057503;28;20128;-67
2022/08/10 08:40:46;;;;;;;3.05;1.17;;;;;;;24.54;29.57;101580.22;5075146;28;20021;-67
2022/08/10 08:43:33;;;;;;;2.38;1.20;;;;;;;24.55;29.51;101578.28;5078284;28;20024;-66
2022/08/10 08:46:05;;;;;;;0.90;0.85;;;;;;;24.60;29.41;101577.53;5073697;28;20047;-66
2022/08/10 08:48:55;;;;;;;1.23;0.80;;;;;;;24.53;29.63;101572.22;5074827;28;20039;-66
2022/08/10 08:51:26;;;;;;;2.38;0.77;;;;;;;24.55;29.54;101576.38;5074585;28;20035;-66
2022/08/10 08:54:17;;;;;;;0.82;0.75;;;;;;;24.59;29.47;101573.16;5074822;28;20090;-66
2022/08/10 08:57:10;;;;;;;1.10;0.70;;;;;;;24.59;29.46;101568.50;5074712;28;20071;-66
2022/08/10 09:00:04;;;;;;;0.80;0.65;;;;;;;24.55;29.77;101576.38;5073019;28;20031;-67
2022/08/10 09:02:30;;;;;;;0.52;0.50;;;;;;;24.50;29.63;101554.41;5073457;28;20021;-67
2022/08/10 09:05:20;;;;;;;1.40;0.55;;;;;;;24.47;29.87;101559.56;5074301;28;20032;-66
2022/08/10 09:08:01;;;;;;;2.08;0.60;;;;;;;24.48;29.65;101559.31;5056838;28;20029;-66
2022/08/10 09:10:36;;;;;;;0.63;0.50;;;;;;;24.45;29.70;101562.53;5052955;28;20033;-66
2022/08/10 09:13:31;;;;;;;1.08;0.47;;;;;;;24.47;29.80;101560.38;5054375;28;20074;-66
2022/08/10 09:16:14;;;;;;;1.42;0.65;;;;;;;24.44;29.95;101549.97;5054157;28;20036;-66
2022/08/10 09:19:12;;;;;;;0.97;0.63;;;;;;;24.45;30.06;101548.88;5054326;28;20104;-67
2022/08/10 09:22:08;;;;;;;0.50;0.50;;;;;;;24.46;30.27;101544.25;5039210;28;20254;-66
2022/08/10 09:24:56;;;;;;;1.85;0.80;;;;;;;24.50;30.33;101546.22;5054150;28;20477;-66
2022/08/10 09:27:31;;;;;;;0.50;0.50;;;;;;;24.49;30.17;101544.59;5052932;28;20111;-66
2022/08/10 09:29:59;;;;;;;2.05;0.60;;;;;;;24.47;30.57;101538.53;5037448;28;20032;-66
2022/08/10 09:32:57;;;;;;;1.45;0.60;;;;;;;24.50;30.44;101538.03;5036051;28;20124;-66
2022/08/10 09:35:54;;;;;;;2.47;0.70;;;;;;;24.52;30.30;101538.59;5012482;28;20089;-65
2022/08/10 09:38:28;;;;;;;0.98;0.80;;;;;;;24.48;30.47;101540.19;4995536;28;20034;-65
2022/08/10 09:41:14;;;;;;;2.05;1.00;;;;;;;24.57;30.22;101534.31;5012174;28;20037;-65
2022/08/10 09:44:25;;;;;;;2.97;1.30;;;;;;;24.60;30.04;101528.34;5011789;28;20088;-65
2022/08/10 09:47:12;;;;;;;6.63;2.20;;;;;;;24.66;29.94;101522.66;5008308;28;20120;-65
2022/08/10 09:49:58;;;;;;;6.35;2.28;;;;;;;24.64;29.95;101529.47;5011761;28;20030;-65
2022/08/10 09:52:48;;;;;;;6.88;2.20;;;;;;;24.68;30.28;101531.47;4996842;28;20112;-65
2022/08/10 09:55:14;;;;;;;3.35;1.50;;;;;;;24.73;29.92;101531.53;5011684;28;20034;-65
2022/08/10 09:58:20;;;;;;;4.28;1.42;;;;;;;24.73;29.96;101527.94;5011708;28;20084;-65
2022/08/10 10:00:50;;;;;;;4.20;1.30;;;;;;;24.67;30.41;101518.03;4997594;28;20037;-67
2022/08/10 10:03:23;;;;;;;4.18;1.27;;;;;;;24.74;30.49;101518.69;5012428;28;20051;-65
2022/08/10 10:06:10;;;;;;;5.80;1.30;;;;;;;24.74;30.48;101519.50;4996551;28;20140;-66
2022/08/10 10:08:59;;;;;;;2.72;1.13;;;;;;;24.74;30.55;101524.16;4995887;28;20025;-65
2022/08/10 10:11:41;;;;;;;2.22;1.00;;;;;;;24.76;30.41;101527.44;5007114;28;20072;-65
2022/08/10 10:14:09;;;;;;;2.67;1.10;;;;;;;24.79;30.64;101526.94;5052840;28;20490;-64
2022/08/10 10:17:02;;;;;;;2.33;1.10;;;;;;;24.81;30.53;101519.31;5054124;28;20056;-65
2022/08/10 10:20:03;;;;;;;3.63;1.63;;;;;;;24.78;30.74;101519.81;5053596;28;20029;-66
2022/08/10 10:22:53;;;;;;;5.22;2.25;;;;;;;24.80;30.97;101516.81;5041905;28;20075;-65
2022/08/10 10:25:39;;;;;;;3.78;1.85;;;;;;;24.80;31.00;101512.19;5038608;28;20021;-66
2022/08/10 10:28:08;;;;;;;3.65;1.90;;;;;;;24.81;30.88;101508.38;5054200;28;20545;-66
2022/08/10 10:30:46;;;;;;;5.03;1.60;;;;;;;24.81;30.90;101507.56;5053596;28;20029;-65
2022/08/10 10:33:14;;;;;;;3.92;1.65;;;;;;;24.82;30.92;101498.25;5037948;28;20059;-64
2022/08/10 10:35:53;;;;;;;2.10;1.40;;;;;;;24.82;30.72;101515.50;5052590;28;20028;-65
2022/08/10 10:38:25;;;;;;;3.78;1.48;;;;;;;24.90;30.83;101500.53;5053253;28;20083;-64
2022/08/10 10:41:19;;;;;;;3.15;1.23;;;;;;;24.87;30.92;101501.03;5041798;28;20035;-64
2022/08/10 10:44:07;;;;;;;3.17;1.10;;;;;;;24.86;31.26;101489.28;5059748;28;20031;-65
2022/08/10 10:47:09;;;;;;;1.98;0.95;;;;;;;24.87;31.18;101498.31;5059970;28;20036;-65
2022/08/10 10:49:50;;;;;;;1.48;0.95;;;;;;;24.88;31.24;101489.84;5058578;28;20036;-65
2022/08/10 10:52:18;;;;;;;1.85;0.82;;;;;;;24.96;31.14;101490.47;5060049;28;20032;-65
2022/08/10 10:54:46;;;;;;;1.45;0.90;;;;;;;24.97;30.96;101490.22;5059681;28;20043;-65
2022/08/10 10:57:28;;;;;;;1.98;0.80;;;;;;;24.97;31.49;101494.88;5058178;28;20048;-65
2022/08/10 11:00:08;;;;;;;1.00;0.70;;;;;;;24.98;31.29;101485.59;5041921;28;20025;-66
2022/08/10 11:02:49;;;;;;;4.53;1.15;;;;;;;24.98;31.24;101474.66;5059623;28;20056;-65
2022/08/10 11:05:49;;;;;;;1.48;0.73;;;;;;;25.00;31.25;101477.94;5058380;28;20036;-66
2022/08/10 11:08:17;;;;;;;0.82;0.50;;;;;;;25.06;31.36;101471.44;5039476;28;20100;-66
2022/08/10 11:10:52;;;;;;;1.55;0.65;;;;;;;25.07;31.26;101475.81;5038798;28;20078;-66
2022/08/10 11:13:37;;;;;;;1.00;0.75;;;;;;;24.99;31.37;101477.13;5071349;28;20529;-66
2022/08/10 11:16:15;;;;;;;0.68;0.60;;;;;;;24.96;31.58;101474.06;5039098;28;20026;-66
2022/08/10 11:19:09;;;;;;;2.38;0.60;;;;;;;25.00;31.39;101467.00;5038119;28;20030;-66
2022/08/10 11:22:00;;;;;;;0.40;0.40;;;;;;;25.02;31.32;101464.84;5037937;28;20491;-66
2022/08/10 11:24:38;;;;;;;2.85;0.52;;;;;;;25.02;31.87;101462.09;5037866;28;20033;-66
2022/08/10 11:27:14;;;;;;;1.38;0.60;;;;;;;24.98;31.69;101463.72;5039408;28;20021;-65
2022/08/10 11:29:49;;;;;;;4.00;1.30;;;;;;;25.00;31.55;101445.94;5038098;28;20029;-66
2022/08/10 11:32:16;;;;;;;2.08;0.90;;;;;;;25.04;31.62;101449.00;5038966;28;20120;-66
2022/08/10 11:35:10;;;;;;;1.58;0.90;;;;;;;25.00;31.88;101451.41;5038860;28;20407;-66
2022/08/10 11:37:56;;;;;;;1.50;0.90;;;;;;;25.01;32.07;101458.56;5039298;28;20021;-66
2022/08/10 11:40:25;;;;;;;0.98;0.80;;;;;;;25.05;31.86;101453.38;5039473;28;20045;-64
2022/08/10 11:42:54;;;;;;;1.55;0.70;;;;;;;25.01;31.81;101447.63;5038290;28;20034;-66
2022/08/10 11:45:26;;;;;;;0.93;0.70;;;;;;;25.04;31.80;101435.31;5039648;28;20033;-66
2022/08/10 11:47:53;;;;;;;1.45;0.70;;;;;;;25.01;31.95;101446.75;5039025;28;20037;-65